sensor_id;sensor_type;location;lat;lon;timestamp;temperature;humidity
13416;DHT22;6779;50.150;8.680;2022-07-22T00:00:11;20.60;1.00
13416;DHT22;6779;50.150;8.680;2022-07-22T00:02:36;20.50;1.00
13416;DHT22;6779;50.150;8.680;2022-07-22T00:05:04;20.50;1.00
13416;DHT22;6779;50.150;8.680;2022-07-22T00:07:29;20.50;1.00
13416;DHT22;6779;50.150;8.680;2022-07-22T00:09:55;20.50;1.00
13416;DHT22;6779;50.150;8.680;2022-07-22T00:12:21;20.40;1.00
13416;DHT22;6779;50.150;8.680;2022-07-22T00:14:46;20.50;1.00
13416;DHT22;6779;50.150;8.680;2022-07-22T00:17:12;20.40;1.00
13416;DHT22;6779;50.150;8.680;2022-07-22T00:19:38;20.40;1.00
13416;DHT22;6779;50.150;8.680;2022-07-22T00:22:03;20.40;1.00
13416;DHT22;6779;50.150;8.680;2022-07-22T00:24:29;20.40;1.00
13416;DHT22;6779;50.150;8.680;2022-07-22T00:26:55;20.40;1.00
13416;DHT22;6779;50.150;8.680;2022-07-22T00:29:21;20.40;1.00
13416;DHT22;6779;50.150;8.680;2022-07-22T00:31:47;20.30;1.00
13416;DHT22;6779;50.150;8.680;2022-07-22T00:34:12;20.40;99.90
13416;DHT22;6779;50.150;8.680;2022-07-22T00:36:38;20.40;99.90
13416;DHT22;6779;50.150;8.680;2022-07-22T00:39:04;20.30;99.90
13416;DHT22;6779;50.150;8.680;2022-07-22T00:41:30;20.20;99.90
13416;DHT22;6779;50.150;8.680;2022-07-22T00:46:26;20.20;1.00
13416;DHT22;6779;50.150;8.680;2022-07-22T00:48:52;20.10;99.90
13416;DHT22;6779;50.150;8.680;2022-07-22T00:51:19;20.00;1.00
13416;DHT22;6779;50.150;8.680;2022-07-22T00:53:46;20.00;1.00
13416;DHT22;6779;50.150;8.680;2022-07-22T00:56:12;20.00;1.00
13416;DHT22;6779;50.150;8.680;2022-07-22T00:58:38;20.00;1.00
13416;DHT22;6779;50.150;8.680;2022-07-22T01:01:04;20.00;1.00
13416;DHT22;6779;50.150;8.680;2022-07-22T01:03:30;19.90;1.00
13416;DHT22;6779;50.150;8.680;2022-07-22T01:05:55;19.90;1.00
13416;DHT22;6779;50.150;8.680;2022-07-22T01:08:21;19.90;1.00
13416;DHT22;6779;50.150;8.680;2022-07-22T01:10:47;19.80;1.00
13416;DHT22;6779;50.150;8.680;2022-07-22T01:13:13;19.70;1.00
13416;DHT22;6779;50.150;8.680;2022-07-22T01:15:38;19.70;1.00
13416;DHT22;6779;50.150;8.680;2022-07-22T01:18:04;19.70;1.00
13416;DHT22;6779;50.150;8.680;2022-07-22T01:20:30;19.70;1.00
13416;DHT22;6779;50.150;8.680;2022-07-22T01:22:56;19.80;1.00
13416;DHT22;6779;50.150;8.680;2022-07-22T01:25:22;19.80;1.00
13416;DHT22;6779;50.150;8.680;2022-07-22T01:27:47;19.80;1.00
13416;DHT22;6779;50.150;8.680;2022-07-22T01:30:13;19.80;1.00
13416;DHT22;6779;50.150;8.680;2022-07-22T01:32:39;19.70;1.00
13416;DHT22;6779;50.150;8.680;2022-07-22T01:35:04;19.70;1.00
13416;DHT22;6779;50.150;8.680;2022-07-22T01:37:33;19.70;1.00
13416;DHT22;6779;50.150;8.680;2022-07-22T01:39:58;19.60;1.00
13416;DHT22;6779;50.150;8.680;2022-07-22T01:42:24;19.50;1.00
13416;DHT22;6779;50.150;8.680;2022-07-22T01:44:49;19.40;1.00
13416;DHT22;6779;50.150;8.680;2022-07-22T01:47:15;19.40;1.00
13416;DHT22;6779;50.150;8.680;2022-07-22T01:49:41;19.40;1.00
13416;DHT22;6779;50.150;8.680;2022-07-22T01:52:06;19.50;1.00
13416;DHT22;6779;50.150;8.680;2022-07-22T01:54:32;19.50;1.00
13416;DHT22;6779;50.150;8.680;2022-07-22T01:56:58;19.50;1.00
13416;DHT22;6779;50.150;8.680;2022-07-22T01:59:23;19.50;1.00
13416;DHT22;6779;50.150;8.680;2022-07-22T02:01:49;19.40;1.00
13416;DHT22;6779;50.150;8.680;2022-07-22T02:04:15;19.40;1.00
13416;DHT22;6779;50.150;8.680;2022-07-22T02:06:40;19.50;1.00
13416;DHT22;6779;50.150;8.680;2022-07-22T02:09:06;19.40;1.00
13416;DHT22;6779;50.150;8.680;2022-07-22T02:11:31;19.40;1.00
13416;DHT22;6779;50.150;8.680;2022-07-22T02:13:57;19.30;1.00
13416;DHT22;6779;50.150;8.680;2022-07-22T02:16:23;19.30;1.00
13416;DHT22;6779;50.150;8.680;2022-07-22T02:18:50;19.30;1.00
13416;DHT22;6779;50.150;8.680;2022-07-22T02:21:16;19.30;1.00
13416;DHT22;6779;50.150;8.680;2022-07-22T02:23:42;19.30;1.00
13416;DHT22;6779;50.150;8.680;2022-07-22T02:26:07;19.30;1.00
13416;DHT22;6779;50.150;8.680;2022-07-22T02:28:33;19.20;1.00
13416;DHT22;6779;50.150;8.680;2022-07-22T02:30:59;19.20;1.00
13416;DHT22;6779;50.150;8.680;2022-07-22T02:33:24;19.20;1.00
13416;DHT22;6779;50.150;8.680;2022-07-22T02:35:50;19.10;1.00
13416;DHT22;6779;50.150;8.680;2022-07-22T02:38:15;19.00;1.00
13416;DHT22;6779;50.150;8.680;2022-07-22T02:40:41;19.00;1.00
13416;DHT22;6779;50.150;8.680;2022-07-22T02:43:07;18.90;1.00
13416;DHT22;6779;50.150;8.680;2022-07-22T02:45:33;18.90;1.00
13416;DHT22;6779;50.150;8.680;2022-07-22T02:47:59;18.80;1.00
13416;DHT22;6779;50.150;8.680;2022-07-22T02:50:25;18.80;1.00
13416;DHT22;6779;50.150;8.680;2022-07-22T02:52:51;18.80;1.00
13416;DHT22;6779;50.150;8.680;2022-07-22T02:55:18;18.80;1.00
13416;DHT22;6779;50.150;8.680;2022-07-22T02:57:43;18.80;1.00
13416;DHT22;6779;50.150;8.680;2022-07-22T03:00:11;18.80;1.00
13416;DHT22;6779;50.150;8.680;2022-07-22T03:02:38;18.80;1.00
13416;DHT22;6779;50.150;8.680;2022-07-22T03:05:05;18.80;1.00
13416;DHT22;6779;50.150;8.680;2022-07-22T03:07:30;18.80;1.00
13416;DHT22;6779;50.150;8.680;2022-07-22T03:09:56;18.70;1.00
13416;DHT22;6779;50.150;8.680;2022-07-22T03:12:22;18.80;1.00
13416;DHT22;6779;50.150;8.680;2022-07-22T03:14:47;18.80;1.00
13416;DHT22;6779;50.150;8.680;2022-07-22T03:17:13;18.90;1.00
13416;DHT22;6779;50.150;8.680;2022-07-22T03:19:38;18.90;1.00
13416;DHT22;6779;50.150;8.680;2022-07-22T03:22:04;19.00;1.00
13416;DHT22;6779;50.150;8.680;2022-07-22T03:24:29;19.00;1.00
13416;DHT22;6779;50.150;8.680;2022-07-22T03:26:55;19.10;1.00
13416;DHT22;6779;50.150;8.680;2022-07-22T03:29:21;19.10;1.00
13416;DHT22;6779;50.150;8.680;2022-07-22T03:31:46;19.10;1.00
13416;DHT22;6779;50.150;8.680;2022-07-22T03:34:12;19.10;1.00
13416;DHT22;6779;50.150;8.680;2022-07-22T03:36:37;19.20;1.00
13416;DHT22;6779;50.150;8.680;2022-07-22T03:39:03;19.30;1.00
13416;DHT22;6779;50.150;8.680;2022-07-22T03:41:29;19.40;1.00
13416;DHT22;6779;50.150;8.680;2022-07-22T03:43:54;19.30;1.00
13416;DHT22;6779;50.150;8.680;2022-07-22T03:46:20;19.30;1.00
13416;DHT22;6779;50.150;8.680;2022-07-22T03:48:46;19.30;1.00
13416;DHT22;6779;50.150;8.680;2022-07-22T03:51:11;19.40;1.00
13416;DHT22;6779;50.150;8.680;2022-07-22T03:53:37;19.40;1.00
13416;DHT22;6779;50.150;8.680;2022-07-22T03:56:03;19.40;1.00
13416;DHT22;6779;50.150;8.680;2022-07-22T03:58:28;19.30;1.00
13416;DHT22;6779;50.150;8.680;2022-07-22T04:00:54;19.30;1.00
13416;DHT22;6779;50.150;8.680;2022-07-22T04:03:20;19.30;1.00
13416;DHT22;6779;50.150;8.680;2022-07-22T04:05:46;19.40;1.00
13416;DHT22;6779;50.150;8.680;2022-07-22T04:08:12;19.50;1.00
13416;DHT22;6779;50.150;8.680;2022-07-22T04:10:38;19.40;1.00
13416;DHT22;6779;50.150;8.680;2022-07-22T04:13:05;19.50;1.00
13416;DHT22;6779;50.150;8.680;2022-07-22T04:15:30;19.60;1.00
13416;DHT22;6779;50.150;8.680;2022-07-22T04:17:56;19.60;1.00
13416;DHT22;6779;50.150;8.680;2022-07-22T04:20:22;19.60;1.00
13416;DHT22;6779;50.150;8.680;2022-07-22T04:22:47;19.70;1.00
13416;DHT22;6779;50.150;8.680;2022-07-22T04:25:13;19.70;1.00
13416;DHT22;6779;50.150;8.680;2022-07-22T04:27:40;19.70;1.00
13416;DHT22;6779;50.150;8.680;2022-07-22T04:30:06;19.70;1.00
13416;DHT22;6779;50.150;8.680;2022-07-22T04:32:32;19.70;1.00
13416;DHT22;6779;50.150;8.680;2022-07-22T04:34:58;19.70;1.00
13416;DHT22;6779;50.150;8.680;2022-07-22T04:37:23;19.70;1.00
13416;DHT22;6779;50.150;8.680;2022-07-22T04:39:49;19.70;1.00
13416;DHT22;6779;50.150;8.680;2022-07-22T04:42:14;19.80;1.00
13416;DHT22;6779;50.150;8.680;2022-07-22T04:44:40;19.80;1.00
13416;DHT22;6779;50.150;8.680;2022-07-22T04:47:05;19.70;1.00
13416;DHT22;6779;50.150;8.680;2022-07-22T04:49:31;19.80;1.00
13416;DHT22;6779;50.150;8.680;2022-07-22T04:51:57;19.70;1.00
13416;DHT22;6779;50.150;8.680;2022-07-22T04:54:22;19.80;1.00
13416;DHT22;6779;50.150;8.680;2022-07-22T04:56:48;19.80;1.00
13416;DHT22;6779;50.150;8.680;2022-07-22T04:59:13;19.70;1.00
13416;DHT22;6779;50.150;8.680;2022-07-22T05:01:39;19.70;1.00
13416;DHT22;6779;50.150;8.680;2022-07-22T05:04:04;19.70;1.00
13416;DHT22;6779;50.150;8.680;2022-07-22T05:06:30;19.70;1.00
13416;DHT22;6779;50.150;8.680;2022-07-22T05:08:56;19.60;1.00
13416;DHT22;6779;50.150;8.680;2022-07-22T05:11:21;19.70;1.00
13416;DHT22;6779;50.150;8.680;2022-07-22T05:13:47;19.60;1.00
13416;DHT22;6779;50.150;8.680;2022-07-22T05:16:13;19.70;1.00
13416;DHT22;6779;50.150;8.680;2022-07-22T05:18:39;19.60;1.00
13416;DHT22;6779;50.150;8.680;2022-07-22T05:21:05;19.60;1.00
13416;DHT22;6779;50.150;8.680;2022-07-22T05:23:31;19.60;1.00
13416;DHT22;6779;50.150;8.680;2022-07-22T05:25:57;19.60;1.00
13416;DHT22;6779;50.150;8.680;2022-07-22T05:28:23;19.50;1.00
13416;DHT22;6779;50.150;8.680;2022-07-22T05:30:48;19.50;1.00
13416;DHT22;6779;50.150;8.680;2022-07-22T05:33:14;19.50;1.00
13416;DHT22;6779;50.150;8.680;2022-07-22T05:35:40;19.60;1.00
13416;DHT22;6779;50.150;8.680;2022-07-22T05:38:05;19.60;1.00
13416;DHT22;6779;50.150;8.680;2022-07-22T05:40:31;19.60;1.00
13416;DHT22;6779;50.150;8.680;2022-07-22T05:42:58;19.60;1.00
13416;DHT22;6779;50.150;8.680;2022-07-22T05:45:23;19.70;1.00
13416;DHT22;6779;50.150;8.680;2022-07-22T05:47:49;19.80;1.00
13416;DHT22;6779;50.150;8.680;2022-07-22T05:50:14;19.80;1.00
13416;DHT22;6779;50.150;8.680;2022-07-22T05:52:40;19.80;1.00
13416;DHT22;6779;50.150;8.680;2022-07-22T05:55:07;19.80;1.00
13416;DHT22;6779;50.150;8.680;2022-07-22T05:57:33;19.80;1.00
13416;DHT22;6779;50.150;8.680;2022-07-22T05:59:58;19.80;1.00
13416;DHT22;6779;50.150;8.680;2022-07-22T06:02:24;19.80;1.00
13416;DHT22;6779;50.150;8.680;2022-07-22T06:04:50;19.70;1.00
13416;DHT22;6779;50.150;8.680;2022-07-22T06:07:15;19.80;1.00
13416;DHT22;6779;50.150;8.680;2022-07-22T06:09:41;19.90;1.00
13416;DHT22;6779;50.150;8.680;2022-07-22T06:12:07;19.90;1.00
13416;DHT22;6779;50.150;8.680;2022-07-22T06:14:32;20.00;1.00
13416;DHT22;6779;50.150;8.680;2022-07-22T06:16:59;20.00;1.00
13416;DHT22;6779;50.150;8.680;2022-07-22T06:19:24;20.20;1.00
13416;DHT22;6779;50.150;8.680;2022-07-22T06:21:50;20.20;1.00
13416;DHT22;6779;50.150;8.680;2022-07-22T06:24:16;20.40;1.00
13416;DHT22;6779;50.150;8.680;2022-07-22T06:26:41;20.50;1.00
13416;DHT22;6779;50.150;8.680;2022-07-22T06:29:07;20.60;1.00
13416;DHT22;6779;50.150;8.680;2022-07-22T06:31:33;20.70;99.90
13416;DHT22;6779;50.150;8.680;2022-07-22T06:33:59;20.70;99.90
13416;DHT22;6779;50.150;8.680;2022-07-22T06:36:24;20.90;99.90
13416;DHT22;6779;50.150;8.680;2022-07-22T06:38:50;21.00;99.90
13416;DHT22;6779;50.150;8.680;2022-07-22T06:41:15;20.90;99.90
13416;DHT22;6779;50.150;8.680;2022-07-22T06:43:45;21.10;99.90
13416;DHT22;6779;50.150;8.680;2022-07-22T06:46:10;21.20;99.90
13416;DHT22;6779;50.150;8.680;2022-07-22T06:48:36;21.30;99.90
13416;DHT22;6779;50.150;8.680;2022-07-22T06:51:02;21.40;99.90
13416;DHT22;6779;50.150;8.680;2022-07-22T06:53:27;21.50;99.90
13416;DHT22;6779;50.150;8.680;2022-07-22T06:55:53;21.50;99.90
13416;DHT22;6779;50.150;8.680;2022-07-22T06:58:18;21.60;99.90
13416;DHT22;6779;50.150;8.680;2022-07-22T07:00:44;21.60;99.90
13416;DHT22;6779;50.150;8.680;2022-07-22T07:03:10;21.60;99.90
13416;DHT22;6779;50.150;8.680;2022-07-22T07:05:35;21.60;99.90
13416;DHT22;6779;50.150;8.680;2022-07-22T07:08:01;21.50;99.90
13416;DHT22;6779;50.150;8.680;2022-07-22T07:10:27;21.60;99.90
13416;DHT22;6779;50.150;8.680;2022-07-22T07:12:59;21.40;99.90
13416;DHT22;6779;50.150;8.680;2022-07-22T07:15:25;21.40;99.90
13416;DHT22;6779;50.150;8.680;2022-07-22T07:17:53;21.50;99.90
13416;DHT22;6779;50.150;8.680;2022-07-22T07:20:19;21.70;99.90
13416;DHT22;6779;50.150;8.680;2022-07-22T07:22:45;21.70;99.90
13416;DHT22;6779;50.150;8.680;2022-07-22T07:25:11;21.40;99.90
13416;DHT22;6779;50.150;8.680;2022-07-22T07:27:36;21.40;99.90
13416;DHT22;6779;50.150;8.680;2022-07-22T07:30:04;21.50;99.90
13416;DHT22;6779;50.150;8.680;2022-07-22T07:32:30;21.50;99.90
13416;DHT22;6779;50.150;8.680;2022-07-22T07:34:56;21.70;99.90
13416;DHT22;6779;50.150;8.680;2022-07-22T07:37:22;21.80;99.90
13416;DHT22;6779;50.150;8.680;2022-07-22T07:39:47;21.90;99.90
13416;DHT22;6779;50.150;8.680;2022-07-22T07:42:13;21.90;99.90
13416;DHT22;6779;50.150;8.680;2022-07-22T07:44:39;22.10;99.90
13416;DHT22;6779;50.150;8.680;2022-07-22T07:47:05;22.20;99.90
13416;DHT22;6779;50.150;8.680;2022-07-22T07:49:31;22.10;99.90
13416;DHT22;6779;50.150;8.680;2022-07-22T07:51:56;22.20;99.90
13416;DHT22;6779;50.150;8.680;2022-07-22T07:54:22;22.40;99.90
13416;DHT22;6779;50.150;8.680;2022-07-22T07:56:48;22.20;99.90
13416;DHT22;6779;50.150;8.680;2022-07-22T07:59:13;22.30;99.90
13416;DHT22;6779;50.150;8.680;2022-07-22T08:01:39;22.00;99.90
13416;DHT22;6779;50.150;8.680;2022-07-22T08:04:05;21.80;99.90
13416;DHT22;6779;50.150;8.680;2022-07-22T08:06:31;21.80;99.90
13416;DHT22;6779;50.150;8.680;2022-07-22T08:08:56;21.80;99.90
13416;DHT22;6779;50.150;8.680;2022-07-22T08:11:22;21.80;99.90
13416;DHT22;6779;50.150;8.680;2022-07-22T08:13:48;21.80;99.90
13416;DHT22;6779;50.150;8.680;2022-07-22T08:16:14;22.00;99.90
13416;DHT22;6779;50.150;8.680;2022-07-22T08:18:40;21.80;99.90
13416;DHT22;6779;50.150;8.680;2022-07-22T08:21:06;21.90;99.90
13416;DHT22;6779;50.150;8.680;2022-07-22T08:23:32;22.10;99.90
13416;DHT22;6779;50.150;8.680;2022-07-22T08:25:58;22.00;99.90
13416;DHT22;6779;50.150;8.680;2022-07-22T08:28:24;22.10;99.90
13416;DHT22;6779;50.150;8.680;2022-07-22T08:30:50;22.10;99.90
13416;DHT22;6779;50.150;8.680;2022-07-22T08:33:15;22.20;99.90
13416;DHT22;6779;50.150;8.680;2022-07-22T08:35:41;22.40;99.90
13416;DHT22;6779;50.150;8.680;2022-07-22T08:38:07;22.30;99.90
13416;DHT22;6779;50.150;8.680;2022-07-22T08:40:32;22.30;99.90
13416;DHT22;6779;50.150;8.680;2022-07-22T08:42:58;22.20;99.90
13416;DHT22;6779;50.150;8.680;2022-07-22T08:45:29;22.20;99.90
13416;DHT22;6779;50.150;8.680;2022-07-22T08:47:54;22.10;99.90
13416;DHT22;6779;50.150;8.680;2022-07-22T08:50:20;22.20;99.90
13416;DHT22;6779;50.150;8.680;2022-07-22T08:52:46;22.10;99.90
13416;DHT22;6779;50.150;8.680;2022-07-22T08:55:11;22.20;99.90
13416;DHT22;6779;50.150;8.680;2022-07-22T08:57:37;22.50;99.90
13416;DHT22;6779;50.150;8.680;2022-07-22T09:00:09;22.90;99.90
13416;DHT22;6779;50.150;8.680;2022-07-22T09:02:40;23.10;99.90
13416;DHT22;6779;50.150;8.680;2022-07-22T09:05:08;23.40;99.90
13416;DHT22;6779;50.150;8.680;2022-07-22T09:07:39;23.60;99.90
13416;DHT22;6779;50.150;8.680;2022-07-22T09:10:11;23.90;99.90
13416;DHT22;6779;50.150;8.680;2022-07-22T09:15:32;24.00;99.90
13416;DHT22;6779;50.150;8.680;2022-07-22T09:17:59;24.40;99.90
13416;DHT22;6779;50.150;8.680;2022-07-22T09:20:26;25.00;99.90
13416;DHT22;6779;50.150;8.680;2022-07-22T09:22:52;26.00;99.90
13416;DHT22;6779;50.150;8.680;2022-07-22T09:25:32;26.60;99.90
13416;DHT22;6779;50.150;8.680;2022-07-22T09:30:45;29.10;99.90
13416;DHT22;6779;50.150;8.680;2022-07-22T09:33:11;29.90;99.90
13416;DHT22;6779;50.150;8.680;2022-07-22T09:35:37;31.10;99.90
13416;DHT22;6779;50.150;8.680;2022-07-22T09:38:06;31.70;99.90
13416;DHT22;6779;50.150;8.680;2022-07-22T09:40:37;32.50;99.90
13416;DHT22;6779;50.150;8.680;2022-07-22T09:43:13;32.40;99.90
13416;DHT22;6779;50.150;8.680;2022-07-22T09:48:14;33.30;99.90
13416;DHT22;6779;50.150;8.680;2022-07-22T09:50:41;32.80;99.90
13416;DHT22;6779;50.150;8.680;2022-07-22T09:53:06;32.60;99.90
13416;DHT22;6779;50.150;8.680;2022-07-22T09:55:32;32.60;99.90
13416;DHT22;6779;50.150;8.680;2022-07-22T09:57:59;32.40;99.90
13416;DHT22;6779;50.150;8.680;2022-07-22T10:00:26;32.80;99.90
13416;DHT22;6779;50.150;8.680;2022-07-22T10:02:55;33.20;99.90
13416;DHT22;6779;50.150;8.680;2022-07-22T10:05:36;33.70;99.90
13416;DHT22;6779;50.150;8.680;2022-07-22T10:08:03;33.50;99.90
13416;DHT22;6779;50.150;8.680;2022-07-22T10:10:30;34.00;99.90
13416;DHT22;6779;50.150;8.680;2022-07-22T10:12:58;34.70;99.90
13416;DHT22;6779;50.150;8.680;2022-07-22T10:15:25;35.60;99.90
13416;DHT22;6779;50.150;8.680;2022-07-22T10:17:53;35.10;99.90
13416;DHT22;6779;50.150;8.680;2022-07-22T10:20:22;34.80;99.90
13416;DHT22;6779;50.150;8.680;2022-07-22T10:25:20;34.90;99.90
13416;DHT22;6779;50.150;8.680;2022-07-22T10:27:57;34.30;99.90
13416;DHT22;6779;50.150;8.680;2022-07-22T10:30:26;34.60;99.90
13416;DHT22;6779;50.150;8.680;2022-07-22T10:33:18;34.70;99.90
13416;DHT22;6779;50.150;8.680;2022-07-22T10:36:02;34.90;99.90
13416;DHT22;6779;50.150;8.680;2022-07-22T10:38:29;35.30;99.90
13416;DHT22;6779;50.150;8.680;2022-07-22T10:41:01;35.90;99.90
13416;DHT22;6779;50.150;8.680;2022-07-22T10:43:31;36.70;99.90
13416;DHT22;6779;50.150;8.680;2022-07-22T10:46:01;36.20;99.90
13416;DHT22;6779;50.150;8.680;2022-07-22T10:51:14;36.30;99.90
13416;DHT22;6779;50.150;8.680;2022-07-22T10:53:47;36.10;99.90
13416;DHT22;6779;50.150;8.680;2022-07-22T10:58:47;36.80;99.90
13416;DHT22;6779;50.150;8.680;2022-07-22T11:01:15;37.00;99.90
13416;DHT22;6779;50.150;8.680;2022-07-22T11:03:43;37.00;99.90
13416;DHT22;6779;50.150;8.680;2022-07-22T11:06:26;37.30;99.90
13416;DHT22;6779;50.150;8.680;2022-07-22T11:09:04;37.10;99.90
13416;DHT22;6779;50.150;8.680;2022-07-22T11:11:39;37.00;99.90
13416;DHT22;6779;50.150;8.680;2022-07-22T11:14:24;36.90;99.90
13416;DHT22;6779;50.150;8.680;2022-07-22T11:16:58;37.30;99.90
13416;DHT22;6779;50.150;8.680;2022-07-22T11:19:28;37.10;99.90
13416;DHT22;6779;50.150;8.680;2022-07-22T11:22:02;37.10;99.90
13416;DHT22;6779;50.150;8.680;2022-07-22T11:24:29;36.90;99.90
13416;DHT22;6779;50.150;8.680;2022-07-22T11:26:56;37.40;99.90
13416;DHT22;6779;50.150;8.680;2022-07-22T11:29:33;37.10;99.90
13416;DHT22;6779;50.150;8.680;2022-07-22T11:32:00;37.00;99.90
13416;DHT22;6779;50.150;8.680;2022-07-22T11:34:27;37.10;99.90
13416;DHT22;6779;50.150;8.680;2022-07-22T11:36:53;37.20;99.90
13416;DHT22;6779;50.150;8.680;2022-07-22T11:39:27;37.10;99.90
13416;DHT22;6779;50.150;8.680;2022-07-22T11:41:56;36.50;99.90
13416;DHT22;6779;50.150;8.680;2022-07-22T11:44:26;35.70;99.90
13416;DHT22;6779;50.150;8.680;2022-07-22T11:46:52;34.60;99.90
13416;DHT22;6779;50.150;8.680;2022-07-22T11:49:20;33.60;99.90
13416;DHT22;6779;50.150;8.680;2022-07-22T11:51:46;32.70;99.90
13416;DHT22;6779;50.150;8.680;2022-07-22T11:54:12;32.80;99.90
13416;DHT22;6779;50.150;8.680;2022-07-22T11:56:38;32.90;99.90
13416;DHT22;6779;50.150;8.680;2022-07-22T11:59:06;32.50;99.90
13416;DHT22;6779;50.150;8.680;2022-07-22T12:01:36;32.70;99.90
13416;DHT22;6779;50.150;8.680;2022-07-22T12:04:07;32.60;99.90
13416;DHT22;6779;50.150;8.680;2022-07-22T12:06:34;32.50;99.90
13416;DHT22;6779;50.150;8.680;2022-07-22T12:09:12;33.00;99.90
13416;DHT22;6779;50.150;8.680;2022-07-22T12:11:44;32.90;99.90
13416;DHT22;6779;50.150;8.680;2022-07-22T12:14:19;33.10;99.90
13416;DHT22;6779;50.150;8.680;2022-07-22T12:17:08;33.10;99.90
13416;DHT22;6779;50.150;8.680;2022-07-22T12:19:38;33.10;99.90
13416;DHT22;6779;50.150;8.680;2022-07-22T12:22:10;33.00;99.90
13416;DHT22;6779;50.150;8.680;2022-07-22T12:24:41;33.10;99.90
13416;DHT22;6779;50.150;8.680;2022-07-22T12:27:15;32.80;99.90
13416;DHT22;6779;50.150;8.680;2022-07-22T12:29:44;32.70;99.90
13416;DHT22;6779;50.150;8.680;2022-07-22T12:32:23;32.70;99.90
13416;DHT22;6779;50.150;8.680;2022-07-22T12:35:04;32.40;99.90
13416;DHT22;6779;50.150;8.680;2022-07-22T12:40:05;32.00;99.90
13416;DHT22;6779;50.150;8.680;2022-07-22T12:42:39;31.90;99.90
13416;DHT22;6779;50.150;8.680;2022-07-22T12:45:08;32.10;99.90
13416;DHT22;6779;50.150;8.680;2022-07-22T12:47:53;31.80;99.90
13416;DHT22;6779;50.150;8.680;2022-07-22T12:53:11;31.90;99.90
13416;DHT22;6779;50.150;8.680;2022-07-22T12:55:42;31.50;99.90
13416;DHT22;6779;50.150;8.680;2022-07-22T12:58:08;31.60;99.90
13416;DHT22;6779;50.150;8.680;2022-07-22T13:00:40;31.60;99.90
13416;DHT22;6779;50.150;8.680;2022-07-22T13:03:06;31.50;99.90
13416;DHT22;6779;50.150;8.680;2022-07-22T13:05:31;31.00;99.90
13416;DHT22;6779;50.150;8.680;2022-07-22T13:07:57;31.00;99.90
13416;DHT22;6779;50.150;8.680;2022-07-22T13:10:24;31.20;99.90
13416;DHT22;6779;50.150;8.680;2022-07-22T13:12:51;31.10;99.90
13416;DHT22;6779;50.150;8.680;2022-07-22T13:15:18;31.30;99.90
13416;DHT22;6779;50.150;8.680;2022-07-22T13:17:45;31.40;99.90
13416;DHT22;6779;50.150;8.680;2022-07-22T13:20:13;31.60;99.90
13416;DHT22;6779;50.150;8.680;2022-07-22T13:22:41;31.40;99.90
13416;DHT22;6779;50.150;8.680;2022-07-22T13:25:07;31.30;99.90
13416;DHT22;6779;50.150;8.680;2022-07-22T13:27:32;31.10;99.90
13416;DHT22;6779;50.150;8.680;2022-07-22T13:29:58;31.40;99.90
13416;DHT22;6779;50.150;8.680;2022-07-22T13:32:24;31.70;99.90
13416;DHT22;6779;50.150;8.680;2022-07-22T13:34:49;31.80;99.90
13416;DHT22;6779;50.150;8.680;2022-07-22T13:37:15;31.90;99.90
13416;DHT22;6779;50.150;8.680;2022-07-22T13:39:41;31.90;99.90
13416;DHT22;6779;50.150;8.680;2022-07-22T13:42:07;31.70;99.90
13416;DHT22;6779;50.150;8.680;2022-07-22T13:44:34;31.80;99.90
13416;DHT22;6779;50.150;8.680;2022-07-22T13:47:00;31.70;99.90
13416;DHT22;6779;50.150;8.680;2022-07-22T13:49:26;31.20;99.90
13416;DHT22;6779;50.150;8.680;2022-07-22T13:51:52;31.30;99.90
13416;DHT22;6779;50.150;8.680;2022-07-22T13:54:18;31.50;99.90
13416;DHT22;6779;50.150;8.680;2022-07-22T13:56:44;31.30;99.90
13416;DHT22;6779;50.150;8.680;2022-07-22T13:59:12;31.00;99.90
13416;DHT22;6779;50.150;8.680;2022-07-22T14:01:38;31.10;99.90
13416;DHT22;6779;50.150;8.680;2022-07-22T14:04:04;31.30;99.90
13416;DHT22;6779;50.150;8.680;2022-07-22T14:06:30;31.50;99.90
13416;DHT22;6779;50.150;8.680;2022-07-22T14:08:55;31.60;99.90
13416;DHT22;6779;50.150;8.680;2022-07-22T14:11:21;31.60;99.90
13416;DHT22;6779;50.150;8.680;2022-07-22T14:13:47;31.30;99.90
13416;DHT22;6779;50.150;8.680;2022-07-22T14:16:12;31.00;99.90
13416;DHT22;6779;50.150;8.680;2022-07-22T14:18:56;30.80;99.90
13416;DHT22;6779;50.150;8.680;2022-07-22T14:21:22;30.50;99.90
13416;DHT22;6779;50.150;8.680;2022-07-22T14:23:47;30.50;99.90
13416;DHT22;6779;50.150;8.680;2022-07-22T14:26:13;30.70;99.90
13416;DHT22;6779;50.150;8.680;2022-07-22T14:28:39;30.90;99.90
13416;DHT22;6779;50.150;8.680;2022-07-22T14:31:04;30.80;99.90
13416;DHT22;6779;50.150;8.680;2022-07-22T14:33:30;30.70;99.90
13416;DHT22;6779;50.150;8.680;2022-07-22T14:35:56;30.60;99.90
13416;DHT22;6779;50.150;8.680;2022-07-22T14:38:21;30.50;99.90
13416;DHT22;6779;50.150;8.680;2022-07-22T14:40:47;30.60;99.90
13416;DHT22;6779;50.150;8.680;2022-07-22T14:43:12;30.50;99.90
13416;DHT22;6779;50.150;8.680;2022-07-22T14:45:38;30.60;99.90
13416;DHT22;6779;50.150;8.680;2022-07-22T14:48:04;30.40;99.90
13416;DHT22;6779;50.150;8.680;2022-07-22T14:50:30;30.40;99.90
13416;DHT22;6779;50.150;8.680;2022-07-22T14:52:55;30.20;99.90
13416;DHT22;6779;50.150;8.680;2022-07-22T14:55:21;30.20;99.90
13416;DHT22;6779;50.150;8.680;2022-07-22T14:57:47;30.20;99.90
13416;DHT22;6779;50.150;8.680;2022-07-22T15:00:12;30.10;99.90
13416;DHT22;6779;50.150;8.680;2022-07-22T15:02:38;30.10;99.90
13416;DHT22;6779;50.150;8.680;2022-07-22T15:05:04;30.40;99.90
13416;DHT22;6779;50.150;8.680;2022-07-22T15:07:30;30.40;99.90
13416;DHT22;6779;50.150;8.680;2022-07-22T15:09:55;30.40;99.90
13416;DHT22;6779;50.150;8.680;2022-07-22T15:12:21;30.60;99.90
13416;DHT22;6779;50.150;8.680;2022-07-22T15:14:46;30.70;99.90
13416;DHT22;6779;50.150;8.680;2022-07-22T15:17:12;30.70;99.90
13416;DHT22;6779;50.150;8.680;2022-07-22T15:19:37;30.50;99.90
13416;DHT22;6779;50.150;8.680;2022-07-22T15:22:03;30.30;99.90
13416;DHT22;6779;50.150;8.680;2022-07-22T15:24:29;30.30;99.90
13416;DHT22;6779;50.150;8.680;2022-07-22T15:26:54;30.30;99.90
13416;DHT22;6779;50.150;8.680;2022-07-22T15:29:20;30.10;99.90
13416;DHT22;6779;50.150;8.680;2022-07-22T15:31:45;29.90;99.90
13416;DHT22;6779;50.150;8.680;2022-07-22T15:34:11;30.00;99.90
13416;DHT22;6779;50.150;8.680;2022-07-22T15:36:37;30.10;99.90
13416;DHT22;6779;50.150;8.680;2022-07-22T15:39:03;30.20;99.90
13416;DHT22;6779;50.150;8.680;2022-07-22T15:41:29;30.30;99.90
13416;DHT22;6779;50.150;8.680;2022-07-22T15:43:54;30.20;99.90
13416;DHT22;6779;50.150;8.680;2022-07-22T15:46:20;30.20;99.90
13416;DHT22;6779;50.150;8.680;2022-07-22T15:48:46;30.20;99.90
13416;DHT22;6779;50.150;8.680;2022-07-22T15:51:12;30.10;99.90
13416;DHT22;6779;50.150;8.680;2022-07-22T15:53:37;30.00;99.90
13416;DHT22;6779;50.150;8.680;2022-07-22T15:56:03;30.10;99.90
13416;DHT22;6779;50.150;8.680;2022-07-22T15:58:29;30.00;99.90
13416;DHT22;6779;50.150;8.680;2022-07-22T16:01:13;29.90;99.90
13416;DHT22;6779;50.150;8.680;2022-07-22T16:03:39;29.90;99.90
13416;DHT22;6779;50.150;8.680;2022-07-22T16:06:04;29.90;99.90
13416;DHT22;6779;50.150;8.680;2022-07-22T16:08:30;30.00;99.90
13416;DHT22;6779;50.150;8.680;2022-07-22T16:10:56;30.10;99.90
13416;DHT22;6779;50.150;8.680;2022-07-22T16:13:21;30.10;99.90